sensor_id;sensor_type;location;lat;lon;timestamp;P1;durP1;ratioP1;P2;durP2;ratioP2
24761;SDS011;12865;51.934;10.330;2023-06-04T00:00:05;2.13;;;1.55;;
24761;SDS011;12865;51.934;10.330;2023-06-04T00:02:52;3.50;;;1.88;;
24761;SDS011;12865;51.934;10.330;2023-06-04T00:05:37;2.50;;;1.73;;
24761;SDS011;12865;51.934;10.330;2023-06-04T00:08:23;2.33;;;1.65;;
24761;SDS011;12865;51.934;10.330;2023-06-04T00:11:09;4.50;;;1.70;;
24761;SDS011;12865;51.934;10.330;2023-06-04T00:13:54;4.15;;;1.95;;
24761;SDS011;12865;51.934;10.330;2023-06-04T00:16:40;2.80;;;1.67;;
24761;SDS011;12865;51.934;10.330;2023-06-04T00:19:26;2.47;;;1.88;;
24761;SDS011;12865;51.934;10.330;2023-06-04T00:22:12;3.13;;;1.60;;
24761;SDS011;12865;51.934;10.330;2023-06-04T00:24:57;3.67;;;1.50;;
24761;SDS011;12865;51.934;10.330;2023-06-04T00:27:43;4.97;;;1.92;;
24761;SDS011;12865;51.934;10.330;2023-06-04T00:30:29;2.78;;;1.83;;
24761;SDS011;12865;51.934;10.330;2023-06-04T00:33:14;4.32;;;1.70;;
24761;SDS011;12865;51.934;10.330;2023-06-04T00:36:00;3.92;;;1.80;;
24761;SDS011;12865;51.934;10.330;2023-06-04T00:38:46;3.03;;;1.80;;
24761;SDS011;12865;51.934;10.330;2023-06-04T00:41:32;3.75;;;1.98;;
24761;SDS011;12865;51.934;10.330;2023-06-04T00:44:17;5.53;;;2.05;;
24761;SDS011;12865;51.934;10.330;2023-06-04T00:47:03;3.08;;;1.80;;
24761;SDS011;12865;51.934;10.330;2023-06-04T00:49:49;3.08;;;1.85;;
24761;SDS011;12865;51.934;10.330;2023-06-04T00:52:35;2.00;;;1.80;;
24761;SDS011;12865;51.934;10.330;2023-06-04T00:55:21;3.67;;;1.70;;
24761;SDS011;12865;51.934;10.330;2023-06-04T00:58:06;4.47;;;2.08;;
24761;SDS011;12865;51.934;10.330;2023-06-04T01:00:54;3.47;;;2.13;;
24761;SDS011;12865;51.934;10.330;2023-06-04T01:03:45;3.55;;;2.15;;
24761;SDS011;12865;51.934;10.330;2023-06-04T01:06:44;2.60;;;2.00;;
24761;SDS011;12865;51.934;10.330;2023-06-04T01:09:32;6.55;;;2.20;;
24761;SDS011;12865;51.934;10.330;2023-06-04T01:12:19;3.90;;;2.10;;
24761;SDS011;12865;51.934;10.330;2023-06-04T01:15:05;5.63;;;2.30;;
24761;SDS011;12865;51.934;10.330;2023-06-04T01:17:53;2.22;;;1.90;;
24761;SDS011;12865;51.934;10.330;2023-06-04T01:20:47;3.67;;;2.25;;
24761;SDS011;12865;51.934;10.330;2023-06-04T01:26:31;3.05;;;2.22;;
24761;SDS011;12865;51.934;10.330;2023-06-04T01:29:16;4.75;;;2.20;;
24761;SDS011;12865;51.934;10.330;2023-06-04T01:32:03;4.40;;;2.50;;
24761;SDS011;12865;51.934;10.330;2023-06-04T01:34:49;4.55;;;2.33;;
24761;SDS011;12865;51.934;10.330;2023-06-04T01:37:35;2.60;;;1.73;;
24761;SDS011;12865;51.934;10.330;2023-06-04T01:40:23;3.78;;;2.15;;
24761;SDS011;12865;51.934;10.330;2023-06-04T01:45:56;2.60;;;2.00;;
24761;SDS011;12865;51.934;10.330;2023-06-04T01:48:42;3.28;;;2.20;;
24761;SDS011;12865;51.934;10.330;2023-06-04T01:51:27;5.40;;;2.40;;
24761;SDS011;12865;51.934;10.330;2023-06-04T01:54:13;2.50;;;2.30;;
24761;SDS011;12865;51.934;10.330;2023-06-04T01:56:59;2.55;;;2.35;;
24761;SDS011;12865;51.934;10.330;2023-06-04T01:59:44;3.08;;;2.30;;
24761;SDS011;12865;51.934;10.330;2023-06-04T02:02:30;2.67;;;2.45;;
24761;SDS011;12865;51.934;10.330;2023-06-04T02:05:16;2.92;;;2.40;;
24761;SDS011;12865;51.934;10.330;2023-06-04T02:08:02;5.88;;;2.40;;
24761;SDS011;12865;51.934;10.330;2023-06-04T02:10:50;3.85;;;2.50;;
24761;SDS011;12865;51.934;10.330;2023-06-04T02:13:35;3.35;;;2.40;;
24761;SDS011;12865;51.934;10.330;2023-06-04T02:16:21;3.78;;;2.70;;
24761;SDS011;12865;51.934;10.330;2023-06-04T02:19:07;2.95;;;2.28;;
24761;SDS011;12865;51.934;10.330;2023-06-04T02:21:53;5.75;;;2.40;;
24761;SDS011;12865;51.934;10.330;2023-06-04T02:24:39;4.68;;;2.60;;
24761;SDS011;12865;51.934;10.330;2023-06-04T02:27:27;3.50;;;2.90;;
24761;SDS011;12865;51.934;10.330;2023-06-04T02:30:13;4.05;;;2.53;;
24761;SDS011;12865;51.934;10.330;2023-06-04T02:33:00;3.83;;;2.50;;
24761;SDS011;12865;51.934;10.330;2023-06-04T02:35:46;5.53;;;2.78;;
24761;SDS011;12865;51.934;10.330;2023-06-04T02:38:32;6.25;;;2.85;;
24761;SDS011;12865;51.934;10.330;2023-06-04T02:41:18;3.40;;;2.60;;
24761;SDS011;12865;51.934;10.330;2023-06-04T02:44:04;3.58;;;2.70;;
24761;SDS011;12865;51.934;10.330;2023-06-04T02:46:50;3.00;;;2.50;;
24761;SDS011;12865;51.934;10.330;2023-06-04T02:49:35;3.10;;;2.75;;
24761;SDS011;12865;51.934;10.330;2023-06-04T02:52:21;3.17;;;2.88;;
24761;SDS011;12865;51.934;10.330;2023-06-04T02:55:08;3.45;;;2.70;;
24761;SDS011;12865;51.934;10.330;2023-06-04T02:57:54;2.88;;;2.55;;
24761;SDS011;12865;51.934;10.330;2023-06-04T03:00:40;4.20;;;2.60;;
24761;SDS011;12865;51.934;10.330;2023-06-04T03:03:25;6.78;;;2.80;;
24761;SDS011;12865;51.934;10.330;2023-06-04T03:06:12;5.50;;;3.00;;
24761;SDS011;12865;51.934;10.330;2023-06-04T03:08:59;4.57;;;2.72;;
24761;SDS011;12865;51.934;10.330;2023-06-04T03:11:45;6.10;;;2.40;;
24761;SDS011;12865;51.934;10.330;2023-06-04T03:14:31;7.60;;;2.85;;
24761;SDS011;12865;51.934;10.330;2023-06-04T03:17:17;2.90;;;2.55;;
24761;SDS011;12865;51.934;10.330;2023-06-04T03:20:03;3.88;;;3.00;;
24761;SDS011;12865;51.934;10.330;2023-06-04T03:22:50;4.25;;;2.72;;
24761;SDS011;12865;51.934;10.330;2023-06-04T03:25:37;3.58;;;3.08;;
24761;SDS011;12865;51.934;10.330;2023-06-04T03:28:22;5.32;;;2.90;;
24761;SDS011;12865;51.934;10.330;2023-06-04T03:31:08;3.88;;;2.97;;
24761;SDS011;12865;51.934;10.330;2023-06-04T03:33:54;3.38;;;2.60;;
24761;SDS011;12865;51.934;10.330;2023-06-04T03:36:39;4.93;;;2.83;;
24761;SDS011;12865;51.934;10.330;2023-06-04T03:39:25;4.50;;;2.95;;
24761;SDS011;12865;51.934;10.330;2023-06-04T03:42:11;7.13;;;3.10;;
24761;SDS011;12865;51.934;10.330;2023-06-04T03:44:57;5.55;;;2.67;;
24761;SDS011;12865;51.934;10.330;2023-06-04T03:47:43;4.20;;;2.60;;
24761;SDS011;12865;51.934;10.330;2023-06-04T03:50:29;5.35;;;2.72;;
24761;SDS011;12865;51.934;10.330;2023-06-04T03:53:15;3.58;;;2.97;;
24761;SDS011;12865;51.934;10.330;2023-06-04T03:56:01;3.63;;;3.10;;
24761;SDS011;12865;51.934;10.330;2023-06-04T03:58:46;3.50;;;2.58;;
24761;SDS011;12865;51.934;10.330;2023-06-04T04:01:32;3.45;;;2.70;;
24761;SDS011;12865;51.934;10.330;2023-06-04T04:04:18;3.83;;;3.10;;
24761;SDS011;12865;51.934;10.330;2023-06-04T04:07:04;3.03;;;2.60;;
24761;SDS011;12865;51.934;10.330;2023-06-04T04:09:51;3.03;;;2.72;;
24761;SDS011;12865;51.934;10.330;2023-06-04T04:12:37;2.75;;;2.53;;
24761;SDS011;12865;51.934;10.330;2023-06-04T04:15:23;3.25;;;2.70;;
24761;SDS011;12865;51.934;10.330;2023-06-04T04:18:09;4.03;;;2.97;;
24761;SDS011;12865;51.934;10.330;2023-06-04T04:20:55;5.15;;;2.30;;
24761;SDS011;12865;51.934;10.330;2023-06-04T04:23:41;4.03;;;2.60;;
24761;SDS011;12865;51.934;10.330;2023-06-04T04:26:30;6.40;;;2.60;;
24761;SDS011;12865;51.934;10.330;2023-06-04T04:29:16;3.53;;;2.60;;
24761;SDS011;12865;51.934;10.330;2023-06-04T04:32:01;3.30;;;2.60;;
24761;SDS011;12865;51.934;10.330;2023-06-04T04:34:55;2.85;;;2.30;;
24761;SDS011;12865;51.934;10.330;2023-06-04T04:37:41;4.65;;;2.85;;
24761;SDS011;12865;51.934;10.330;2023-06-04T04:40:26;4.10;;;2.63;;
24761;SDS011;12865;51.934;10.330;2023-06-04T04:43:12;4.85;;;2.75;;
24761;SDS011;12865;51.934;10.330;2023-06-04T04:45:58;5.85;;;2.65;;
24761;SDS011;12865;51.934;10.330;2023-06-04T04:48:44;3.47;;;2.47;;
24761;SDS011;12865;51.934;10.330;2023-06-04T04:51:29;4.22;;;2.85;;
24761;SDS011;12865;51.934;10.330;2023-06-04T04:54:15;4.50;;;2.60;;
24761;SDS011;12865;51.934;10.330;2023-06-04T04:57:00;3.17;;;2.53;;
24761;SDS011;12865;51.934;10.330;2023-06-04T04:59:47;3.65;;;2.58;;
24761;SDS011;12865;51.934;10.330;2023-06-04T05:02:34;5.32;;;2.50;;
24761;SDS011;12865;51.934;10.330;2023-06-04T05:05:22;2.70;;;2.50;;
24761;SDS011;12865;51.934;10.330;2023-06-04T05:08:08;3.85;;;2.83;;
24761;SDS011;12865;51.934;10.330;2023-06-04T05:10:54;4.15;;;2.38;;
24761;SDS011;12865;51.934;10.330;2023-06-04T05:13:39;3.65;;;2.55;;
24761;SDS011;12865;51.934;10.330;2023-06-04T05:16:26;3.38;;;2.55;;
24761;SDS011;12865;51.934;10.330;2023-06-04T05:19:13;4.82;;;2.72;;
24761;SDS011;12865;51.934;10.330;2023-06-04T05:21:59;2.63;;;2.25;;
24761;SDS011;12865;51.934;10.330;2023-06-04T05:24:46;2.53;;;2.20;;
24761;SDS011;12865;51.934;10.330;2023-06-04T05:27:31;4.07;;;2.10;;
24761;SDS011;12865;51.934;10.330;2023-06-04T05:30:18;4.25;;;2.80;;
24761;SDS011;12865;51.934;10.330;2023-06-04T05:33:03;4.80;;;2.38;;
24761;SDS011;12865;51.934;10.330;2023-06-04T05:35:49;4.50;;;2.40;;
24761;SDS011;12865;51.934;10.330;2023-06-04T05:38:35;2.78;;;2.15;;
24761;SDS011;12865;51.934;10.330;2023-06-04T05:41:21;4.05;;;2.20;;
24761;SDS011;12865;51.934;10.330;2023-06-04T05:44:09;2.85;;;2.50;;
24761;SDS011;12865;51.934;10.330;2023-06-04T05:46:54;4.05;;;2.42;;
24761;SDS011;12865;51.934;10.330;2023-06-04T05:49:40;3.80;;;2.60;;
24761;SDS011;12865;51.934;10.330;2023-06-04T05:52:26;3.53;;;2.45;;
24761;SDS011;12865;51.934;10.330;2023-06-04T05:55:11;6.68;;;2.90;;
24761;SDS011;12865;51.934;10.330;2023-06-04T05:57:57;3.65;;;2.60;;
24761;SDS011;12865;51.934;10.330;2023-06-04T06:00:43;5.07;;;3.40;;
24761;SDS011;12865;51.934;10.330;2023-06-04T06:03:29;3.30;;;2.85;;
24761;SDS011;12865;51.934;10.330;2023-06-04T06:06:15;7.20;;;2.63;;
24761;SDS011;12865;51.934;10.330;2023-06-04T06:09:01;6.93;;;3.08;;
24761;SDS011;12865;51.934;10.330;2023-06-04T06:11:46;3.90;;;3.00;;
24761;SDS011;12865;51.934;10.330;2023-06-04T06:14:32;4.47;;;2.80;;
24761;SDS011;12865;51.934;10.330;2023-06-04T06:17:19;4.32;;;2.88;;
24761;SDS011;12865;51.934;10.330;2023-06-04T06:20:04;4.53;;;2.42;;
24761;SDS011;12865;51.934;10.330;2023-06-04T06:25:39;5.13;;;2.67;;
24761;SDS011;12865;51.934;10.330;2023-06-04T06:28:30;4.85;;;3.28;;
24761;SDS011;12865;51.934;10.330;2023-06-04T06:31:16;5.88;;;2.60;;
24761;SDS011;12865;51.934;10.330;2023-06-04T06:34:02;4.03;;;3.10;;
24761;SDS011;12865;51.934;10.330;2023-06-04T06:36:48;3.72;;;2.60;;
24761;SDS011;12865;51.934;10.330;2023-06-04T06:39:35;2.83;;;2.63;;
24761;SDS011;12865;51.934;10.330;2023-06-04T06:42:20;2.83;;;2.55;;
24761;SDS011;12865;51.934;10.330;2023-06-04T06:45:06;5.50;;;2.63;;
24761;SDS011;12865;51.934;10.330;2023-06-04T06:47:52;3.40;;;2.70;;
24761;SDS011;12865;51.934;10.330;2023-06-04T06:50:38;5.45;;;2.67;;
24761;SDS011;12865;51.934;10.330;2023-06-04T06:53:23;5.72;;;3.20;;
24761;SDS011;12865;51.934;10.330;2023-06-04T06:56:09;3.67;;;3.08;;
24761;SDS011;12865;51.934;10.330;2023-06-04T06:58:55;6.03;;;3.35;;
24761;SDS011;12865;51.934;10.330;2023-06-04T07:01:40;5.93;;;3.17;;
24761;SDS011;12865;51.934;10.330;2023-06-04T07:04:26;3.40;;;2.78;;
24761;SDS011;12865;51.934;10.330;2023-06-04T07:07:12;4.88;;;3.05;;
24761;SDS011;12865;51.934;10.330;2023-06-04T07:09:57;8.05;;;3.08;;
24761;SDS011;12865;51.934;10.330;2023-06-04T07:12:43;4.10;;;2.88;;
24761;SDS011;12865;51.934;10.330;2023-06-04T07:15:29;3.45;;;2.90;;
24761;SDS011;12865;51.934;10.330;2023-06-04T07:18:15;3.20;;;2.90;;
24761;SDS011;12865;51.934;10.330;2023-06-04T07:21:00;3.85;;;3.15;;
24761;SDS011;12865;51.934;10.330;2023-06-04T07:23:46;4.53;;;3.30;;
24761;SDS011;12865;51.934;10.330;2023-06-04T07:26:34;4.23;;;2.90;;
24761;SDS011;12865;51.934;10.330;2023-06-04T07:29:20;3.38;;;2.80;;
24761;SDS011;12865;51.934;10.330;2023-06-04T07:32:06;4.53;;;3.15;;
24761;SDS011;12865;51.934;10.330;2023-06-04T07:34:52;4.60;;;2.50;;
24761;SDS011;12865;51.934;10.330;2023-06-04T07:37:37;5.85;;;2.53;;
24761;SDS011;12865;51.934;10.330;2023-06-04T07:40:23;5.10;;;2.22;;
24761;SDS011;12865;51.934;10.330;2023-06-04T07:43:09;5.82;;;2.55;;
24761;SDS011;12865;51.934;10.330;2023-06-04T07:45:55;2.83;;;2.10;;
24761;SDS011;12865;51.934;10.330;2023-06-04T07:48:41;4.45;;;2.53;;
24761;SDS011;12865;51.934;10.330;2023-06-04T07:51:26;3.47;;;2.75;;
24761;SDS011;12865;51.934;10.330;2023-06-04T07:54:12;3.80;;;2.00;;
24761;SDS011;12865;51.934;10.330;2023-06-04T07:56:59;2.55;;;2.10;;
24761;SDS011;12865;51.934;10.330;2023-06-04T07:59:45;3.47;;;2.10;;
24761;SDS011;12865;51.934;10.330;2023-06-04T08:02:30;5.57;;;2.30;;
24761;SDS011;12865;51.934;10.330;2023-06-04T08:05:16;3.38;;;2.30;;
24761;SDS011;12865;51.934;10.330;2023-06-04T08:08:02;2.95;;;2.05;;
24761;SDS011;12865;51.934;10.330;2023-06-04T08:10:48;1.80;;;1.70;;
24761;SDS011;12865;51.934;10.330;2023-06-04T08:13:34;3.28;;;2.08;;
24761;SDS011;12865;51.934;10.330;2023-06-04T08:16:20;3.80;;;2.20;;
24761;SDS011;12865;51.934;10.330;2023-06-04T08:19:05;2.78;;;2.00;;
24761;SDS011;12865;51.934;10.330;2023-06-04T08:21:53;6.68;;;2.70;;
24761;SDS011;12865;51.934;10.330;2023-06-04T08:24:38;4.30;;;2.33;;
24761;SDS011;12865;51.934;10.330;2023-06-04T08:27:24;3.53;;;1.90;;
24761;SDS011;12865;51.934;10.330;2023-06-04T08:30:10;5.53;;;2.13;;
24761;SDS011;12865;51.934;10.330;2023-06-04T08:32:56;1.83;;;1.70;;
24761;SDS011;12865;51.934;10.330;2023-06-04T08:35:42;2.40;;;1.30;;
24761;SDS011;12865;51.934;10.330;2023-06-04T08:38:27;3.20;;;1.70;;
24761;SDS011;12865;51.934;10.330;2023-06-04T08:41:24;1.80;;;1.45;;
24761;SDS011;12865;51.934;10.330;2023-06-04T08:44:15;2.25;;;1.40;;
24761;SDS011;12865;51.934;10.330;2023-06-04T08:47:03;3.60;;;1.50;;
24761;SDS011;12865;51.934;10.330;2023-06-04T08:52:37;3.88;;;1.90;;
24761;SDS011;12865;51.934;10.330;2023-06-04T08:55:23;3.05;;;1.70;;
24761;SDS011;12865;51.934;10.330;2023-06-04T08:58:10;4.60;;;1.63;;
24761;SDS011;12865;51.934;10.330;2023-06-04T09:00:56;1.98;;;1.20;;
24761;SDS011;12865;51.934;10.330;2023-06-04T09:03:42;1.63;;;1.48;;
24761;SDS011;12865;51.934;10.330;2023-06-04T09:06:28;1.63;;;1.33;;
24761;SDS011;12865;51.934;10.330;2023-06-04T09:09:15;3.53;;;1.65;;
24761;SDS011;12865;51.934;10.330;2023-06-04T09:12:02;4.60;;;1.70;;
24761;SDS011;12865;51.934;10.330;2023-06-04T09:14:50;5.15;;;1.50;;
24761;SDS011;12865;51.934;10.330;2023-06-04T09:17:36;2.88;;;1.60;;
24761;SDS011;12865;51.934;10.330;2023-06-04T09:20:22;2.47;;;1.77;;
24761;SDS011;12865;51.934;10.330;2023-06-04T09:23:14;2.78;;;1.30;;
24761;SDS011;12865;51.934;10.330;2023-06-04T09:26:07;5.00;;;1.90;;
24761;SDS011;12865;51.934;10.330;2023-06-04T09:28:54;1.70;;;1.55;;
24761;SDS011;12865;51.934;10.330;2023-06-04T09:31:46;4.50;;;2.03;;
24761;SDS011;12865;51.934;10.330;2023-06-04T09:34:52;1.85;;;1.30;;
24761;SDS011;12865;51.934;10.330;2023-06-04T09:37:43;3.40;;;1.60;;
24761;SDS011;12865;51.934;10.330;2023-06-04T09:40:37;5.78;;;1.52;;
24761;SDS011;12865;51.934;10.330;2023-06-04T09:43:23;2.75;;;1.40;;
24761;SDS011;12865;51.934;10.330;2023-06-04T09:49:02;4.18;;;1.30;;
24761;SDS011;12865;51.934;10.330;2023-06-04T09:51:51;2.05;;;1.40;;
24761;SDS011;12865;51.934;10.330;2023-06-04T09:54:37;1.90;;;1.50;;
24761;SDS011;12865;51.934;10.330;2023-06-04T09:57:23;3.00;;;1.65;;
24761;SDS011;12865;51.934;10.330;2023-06-04T10:00:10;1.85;;;1.40;;
24761;SDS011;12865;51.934;10.330;2023-06-04T10:02:58;1.75;;;1.42;;
24761;SDS011;12865;51.934;10.330;2023-06-04T10:05:47;1.63;;;1.27;;
24761;SDS011;12865;51.934;10.330;2023-06-04T10:08:33;1.85;;;1.30;;
24761;SDS011;12865;51.934;10.330;2023-06-04T10:11:24;5.28;;;1.60;;
24761;SDS011;12865;51.934;10.330;2023-06-04T10:17:11;2.50;;;1.30;;
24761;SDS011;12865;51.934;10.330;2023-06-04T10:19:58;2.22;;;1.40;;
24761;SDS011;12865;51.934;10.330;2023-06-04T10:22:45;1.45;;;1.13;;
24761;SDS011;12865;51.934;10.330;2023-06-04T10:25:36;2.22;;;1.55;;
24761;SDS011;12865;51.934;10.330;2023-06-04T10:28:23;1.48;;;1.35;;
24761;SDS011;12865;51.934;10.330;2023-06-04T10:31:09;1.65;;;1.50;;
24761;SDS011;12865;51.934;10.330;2023-06-04T10:33:55;2.80;;;1.42;;
24761;SDS011;12865;51.934;10.330;2023-06-04T10:36:44;1.30;;;1.20;;
24761;SDS011;12865;51.934;10.330;2023-06-04T10:42:21;1.63;;;1.52;;
24761;SDS011;12865;51.934;10.330;2023-06-04T10:45:08;1.70;;;1.48;;
24761;SDS011;12865;51.934;10.330;2023-06-04T10:48:01;1.80;;;1.70;;
24761;SDS011;12865;51.934;10.330;2023-06-04T10:50:51;4.63;;;1.42;;
24761;SDS011;12865;51.934;10.330;2023-06-04T10:53:38;1.80;;;1.65;;
24761;SDS011;12865;51.934;10.330;2023-06-04T10:56:24;1.50;;;1.40;;
24761;SDS011;12865;51.934;10.330;2023-06-04T10:59:14;3.28;;;1.52;;
24761;SDS011;12865;51.934;10.330;2023-06-04T11:02:04;3.35;;;2.00;;
24761;SDS011;12865;51.934;10.330;2023-06-04T11:04:58;1.60;;;1.50;;
24761;SDS011;12865;51.934;10.330;2023-06-04T11:07:47;2.90;;;1.52;;
24761;SDS011;12865;51.934;10.330;2023-06-04T11:10:35;2.67;;;1.50;;
24761;SDS011;12865;51.934;10.330;2023-06-04T11:13:25;3.08;;;1.55;;
24761;SDS011;12865;51.934;10.330;2023-06-04T11:19:05;2.65;;;1.67;;
24761;SDS011;12865;51.934;10.330;2023-06-04T11:21:51;4.25;;;1.90;;
24761;SDS011;12865;51.934;10.330;2023-06-04T11:24:37;3.03;;;1.52;;
24761;SDS011;12865;51.934;10.330;2023-06-04T11:27:22;2.90;;;2.50;;
24761;SDS011;12865;51.934;10.330;2023-06-04T11:30:08;1.85;;;1.60;;
24761;SDS011;12865;51.934;10.330;2023-06-04T11:33:01;4.03;;;1.73;;
24761;SDS011;12865;51.934;10.330;2023-06-04T11:35:48;1.60;;;1.50;;
24761;SDS011;12865;51.934;10.330;2023-06-04T11:38:34;2.55;;;1.63;;
24761;SDS011;12865;51.934;10.330;2023-06-04T11:41:20;1.83;;;1.58;;
24761;SDS011;12865;51.934;10.330;2023-06-04T11:44:06;2.05;;;1.70;;
24761;SDS011;12865;51.934;10.330;2023-06-04T11:46:51;1.58;;;1.30;;
24761;SDS011;12865;51.934;10.330;2023-06-04T11:49:39;1.90;;;1.70;;
24761;SDS011;12865;51.934;10.330;2023-06-04T11:52:25;4.78;;;1.70;;
24761;SDS011;12865;51.934;10.330;2023-06-04T11:55:11;1.77;;;1.30;;
24761;SDS011;12865;51.934;10.330;2023-06-04T11:57:57;2.05;;;1.48;;
24761;SDS011;12865;51.934;10.330;2023-06-04T12:00:43;2.20;;;1.92;;
24761;SDS011;12865;51.934;10.330;2023-06-04T12:03:35;1.95;;;1.30;;
24761;SDS011;12865;51.934;10.330;2023-06-04T12:06:22;4.07;;;1.70;;
24761;SDS011;12865;51.934;10.330;2023-06-04T12:09:08;2.35;;;1.50;;
24761;SDS011;12865;51.934;10.330;2023-06-04T12:11:58;1.65;;;1.48;;
24761;SDS011;12865;51.934;10.330;2023-06-04T12:14:45;2.38;;;1.30;;
24761;SDS011;12865;51.934;10.330;2023-06-04T12:17:31;2.00;;;1.20;;
24761;SDS011;12865;51.934;10.330;2023-06-04T12:20:18;4.65;;;1.65;;
24761;SDS011;12865;51.934;10.330;2023-06-04T12:23:19;2.20;;;1.40;;
24761;SDS011;12865;51.934;10.330;2023-06-04T12:26:06;1.90;;;1.10;;
24761;SDS011;12865;51.934;10.330;2023-06-04T12:28:59;2.85;;;1.58;;
24761;SDS011;12865;51.934;10.330;2023-06-04T12:31:45;1.63;;;1.52;;
24761;SDS011;12865;51.934;10.330;2023-06-04T12:34:31;2.30;;;1.45;;
24761;SDS011;12865;51.934;10.330;2023-06-04T12:37:17;2.75;;;1.20;;
24761;SDS011;12865;51.934;10.330;2023-06-04T12:40:03;1.75;;;1.60;;
24761;SDS011;12865;51.934;10.330;2023-06-04T12:42:51;1.53;;;1.43;;
24761;SDS011;12865;51.934;10.330;2023-06-04T12:45:37;2.38;;;1.60;;
24761;SDS011;12865;51.934;10.330;2023-06-04T12:48:23;2.75;;;1.50;;
24761;SDS011;12865;51.934;10.330;2023-06-04T12:51:09;3.50;;;1.38;;
24761;SDS011;12865;51.934;10.330;2023-06-04T12:53:57;3.00;;;2.33;;
24761;SDS011;12865;51.934;10.330;2023-06-04T12:56:43;1.63;;;1.27;;
24761;SDS011;12865;51.934;10.330;2023-06-04T12:59:29;1.30;;;1.20;;
24761;SDS011;12865;51.934;10.330;2023-06-04T13:02:15;1.05;;;1.05;;
24761;SDS011;12865;51.934;10.330;2023-06-04T13:05:00;3.25;;;1.33;;
24761;SDS011;12865;51.934;10.330;2023-06-04T13:07:46;1.77;;;1.33;;
24761;SDS011;12865;51.934;10.330;2023-06-04T13:10:32;2.03;;;1.40;;
24761;SDS011;12865;51.934;10.330;2023-06-04T13:13:18;1.52;;;1.42;;
24761;SDS011;12865;51.934;10.330;2023-06-04T13:16:05;2.78;;;1.50;;
24761;SDS011;12865;51.934;10.330;2023-06-04T13:18:50;5.57;;;1.50;;
24761;SDS011;12865;51.934;10.330;2023-06-04T13:21:36;3.13;;;1.65;;
24761;SDS011;12865;51.934;10.330;2023-06-04T13:24:22;1.63;;;1.48;;
24761;SDS011;12865;51.934;10.330;2023-06-04T13:27:07;1.55;;;1.45;;
24761;SDS011;12865;51.934;10.330;2023-06-04T13:29:53;1.45;;;1.35;;
24761;SDS011;12865;51.934;10.330;2023-06-04T13:32:39;1.48;;;1.38;;
24761;SDS011;12865;51.934;10.330;2023-06-04T13:35:24;2.63;;;1.58;;
24761;SDS011;12865;51.934;10.330;2023-06-04T13:38:10;3.78;;;1.40;;
24761;SDS011;12865;51.934;10.330;2023-06-04T13:40:57;1.77;;;1.67;;
24761;SDS011;12865;51.934;10.330;2023-06-04T13:43:43;3.88;;;1.50;;
24761;SDS011;12865;51.934;10.330;2023-06-04T13:46:29;2.08;;;1.25;;
24761;SDS011;12865;51.934;10.330;2023-06-04T13:49:14;2.20;;;1.42;;
24761;SDS011;12865;51.934;10.330;2023-06-04T13:52:00;4.32;;;1.83;;
24761;SDS011;12865;51.934;10.330;2023-06-04T13:54:46;1.88;;;1.55;;
24761;SDS011;12865;51.934;10.330;2023-06-04T13:57:32;3.38;;;1.30;;
24761;SDS011;12865;51.934;10.330;2023-06-04T14:00:17;1.63;;;1.52;;
24761;SDS011;12865;51.934;10.330;2023-06-04T14:03:03;2.67;;;1.40;;
24761;SDS011;12865;51.934;10.330;2023-06-04T14:05:49;1.88;;;1.55;;
24761;SDS011;12865;51.934;10.330;2023-06-04T14:08:34;1.50;;;1.40;;
24761;SDS011;12865;51.934;10.330;2023-06-04T14:11:20;1.40;;;1.30;;
24761;SDS011;12865;51.934;10.330;2023-06-04T14:14:06;2.55;;;1.40;;
24761;SDS011;12865;51.934;10.330;2023-06-04T14:16:52;2.85;;;1.25;;
24761;SDS011;12865;51.934;10.330;2023-06-04T14:19:40;2.22;;;1.20;;
24761;SDS011;12865;51.934;10.330;2023-06-04T14:22:25;3.15;;;1.70;;
24761;SDS011;12865;51.934;10.330;2023-06-04T14:25:11;3.78;;;1.60;;
24761;SDS011;12865;51.934;10.330;2023-06-04T14:27:57;3.25;;;1.42;;
24761;SDS011;12865;51.934;10.330;2023-06-04T14:30:42;2.67;;;1.70;;
24761;SDS011;12865;51.934;10.330;2023-06-04T14:33:28;4.07;;;1.48;;
24761;SDS011;12865;51.934;10.330;2023-06-04T14:36:13;1.40;;;1.30;;
24761;SDS011;12865;51.934;10.330;2023-06-04T14:38:59;2.80;;;1.40;;
24761;SDS011;12865;51.934;10.330;2023-06-04T14:41:45;2.30;;;1.50;;
24761;SDS011;12865;51.934;10.330;2023-06-04T14:44:32;1.70;;;1.50;;
24761;SDS011;12865;51.934;10.330;2023-06-04T14:47:17;1.90;;;1.63;;
24761;SDS011;12865;51.934;10.330;2023-06-04T14:50:03;2.63;;;1.50;;
24761;SDS011;12865;51.934;10.330;2023-06-04T14:52:49;2.45;;;1.50;;
24761;SDS011;12865;51.934;10.330;2023-06-04T14:55:35;2.42;;;1.52;;
24761;SDS011;12865;51.934;10.330;2023-06-04T14:58:21;3.20;;;1.58;;
24761;SDS011;12865;51.934;10.330;2023-06-04T15:01:07;1.50;;;1.40;;
24761;SDS011;12865;51.934;10.330;2023-06-04T15:03:55;2.20;;;1.63;;
24761;SDS011;12865;51.934;10.330;2023-06-04T15:06:41;1.95;;;1.45;;
24761;SDS011;12865;51.934;10.330;2023-06-04T15:09:26;2.28;;;1.48;;
24761;SDS011;12865;51.934;10.330;2023-06-04T15:12:12;2.60;;;1.65;;
24761;SDS011;12865;51.934;10.330;2023-06-04T15:14:58;1.77;;;1.55;;
24761;SDS011;12865;51.934;10.330;2023-06-04T15:17:44;3.33;;;1.60;;
24761;SDS011;12865;51.934;10.330;2023-06-04T15:20:30;3.47;;;1.42;;
24761;SDS011;12865;51.934;10.330;2023-06-04T15:23:16;1.55;;;1.40;;
24761;SDS011;12865;51.934;10.330;2023-06-04T15:26:03;1.90;;;1.63;;
24761;SDS011;12865;51.934;10.330;2023-06-04T15:28:49;2.72;;;1.42;;
24761;SDS011;12865;51.934;10.330;2023-06-04T15:31:34;2.72;;;1.40;;
24761;SDS011;12865;51.934;10.330;2023-06-04T15:34:20;4.60;;;1.80;;
24761;SDS011;12865;51.934;10.330;2023-06-04T15:37:06;1.85;;;1.45;;
24761;SDS011;12865;51.934;10.330;2023-06-04T15:39:51;3.75;;;1.52;;
24761;SDS011;12865;51.934;10.330;2023-06-04T15:42:37;1.95;;;1.75;;
24761;SDS011;12865;51.934;10.330;2023-06-04T15:45:23;2.45;;;1.27;;
24761;SDS011;12865;51.934;10.330;2023-06-04T15:48:10;2.35;;;1.60;;
24761;SDS011;12865;51.934;10.330;2023-06-04T15:50:55;3.95;;;1.95;;
24761;SDS011;12865;51.934;10.330;2023-06-04T15:53:41;2.22;;;1.50;;
24761;SDS011;12865;51.934;10.330;2023-06-04T15:56:27;1.50;;;1.40;;
24761;SDS011;12865;51.934;10.330;2023-06-04T15:59:13;2.50;;;1.63;;
24761;SDS011;12865;51.934;10.330;2023-06-04T16:01:59;3.50;;;1.60;;
24761;SDS011;12865;51.934;10.330;2023-06-04T16:04:45;2.00;;;1.80;;
24761;SDS011;12865;51.934;10.330;2023-06-04T16:07:31;2.53;;;1.60;;
24761;SDS011;12865;51.934;10.330;2023-06-04T16:10:16;6.20;;;1.95;;
24761;SDS011;12865;51.934;10.330;2023-06-04T16:13:02;2.55;;;1.73;;
24761;SDS011;12865;51.934;10.330;2023-06-04T16:15:48;3.78;;;1.95;;
24761;SDS011;12865;51.934;10.330;2023-06-04T16:18:34;1.58;;;1.33;;
24761;SDS011;12865;51.934;10.330;2023-06-04T16:21:20;1.45;;;1.35;;
24761;SDS011;12865;51.934;10.330;2023-06-04T16:24:06;3.05;;;1.67;;
24761;SDS011;12865;51.934;10.330;2023-06-04T16:26:51;2.10;;;1.95;;
24761;SDS011;12865;51.934;10.330;2023-06-04T16:29:37;2.10;;;1.88;;
24761;SDS011;12865;51.934;10.330;2023-06-04T16:32:23;1.60;;;1.50;;
24761;SDS011;12865;51.934;10.330;2023-06-04T16:35:08;5.35;;;1.70;;
24761;SDS011;12865;51.934;10.330;2023-06-04T16:37:57;3.75;;;1.70;;
24761;SDS011;12865;51.934;10.330;2023-06-04T16:40:44;2.80;;;1.80;;
24761;SDS011;12865;51.934;10.330;2023-06-04T16:43:29;4.00;;;1.67;;
24761;SDS011;12865;51.934;10.330;2023-06-04T16:46:15;2.35;;;1.70;;
24761;SDS011;12865;51.934;10.330;2023-06-04T16:49:01;4.30;;;1.83;;